Thursday, October 19, 2017, 2:21 PM EDT

KLKU, Louisa, Louisa County Airport/freeman Field

Location: Louisa, VA, United States Lat: 38.01
Local Time: 2:21 PM EDT (18:21 GMT) Lon: -77.97
Time Zone: US/Eastern Elev: 492 ft

Show me the last for .
Show Decoded

2017-10-19 13:35 METAR KLKU 191735Z AUTO 00000KT 10SM CLR 21/06 A3022 RMK AO2 =
2017-10-19 13:15 METAR KLKU 191715Z AUTO 24006KT 10SM CLR 21/06 A3023 RMK AO2 =
2017-10-19 12:55 METAR KLKU 191655Z AUTO 22003KT 10SM CLR 21/07 A3024 RMK AO2 =
2017-10-19 12:35 METAR KLKU 191635Z AUTO 25004KT 10SM CLR 19/06 A3026 RMK AO2 =
2017-10-19 12:15 METAR KLKU 191615Z AUTO 24005KT 10SM CLR 19/06 A3026 RMK AO2 =
2017-10-19 11:55 METAR KLKU 191555Z AUTO 25006KT 10SM CLR 19/06 A3026 RMK AO2 =
2017-10-19 11:35 METAR KLKU 191535Z AUTO 20005KT 10SM CLR 18/06 A3027 RMK AO2 =
2017-10-19 11:15 METAR KLKU 191515Z AUTO 22004KT 10SM CLR 17/06 A3027 RMK AO2 =
2017-10-19 10:15 METAR KLKU 191415Z AUTO 21004KT 10SM CLR 14/06 A3028 RMK AO2 =
2017-10-19 09:55 METAR KLKU 191355Z AUTO 21003KT 10SM CLR 12/06 A3029 RMK AO2 =
2017-10-19 09:35 METAR KLKU 191335Z AUTO 20004KT 10SM CLR 11/06 A3029 RMK AO2 =
2017-10-19 09:15 METAR KLKU 191315Z AUTO 00000KT 10SM CLR 10/06 A3029 RMK AO2 =
2017-10-19 08:55 METAR KLKU 191255Z AUTO 00000KT 10SM CLR 09/05 A3029 RMK AO2 =
2017-10-19 08:35 METAR KLKU 191235Z AUTO 00000KT 10SM CLR 06/06 A3028 RMK AO2 =
2017-10-19 08:15 METAR KLKU 191215Z AUTO 00000KT 10SM CLR 03/03 A3027 RMK AO2 =
2017-10-19 07:55 METAR KLKU 191155Z AUTO 00000KT 10SM CLR 02/02 A3027 RMK AO2 =
2017-10-19 07:35 METAR KLKU 191135Z AUTO 13003KT 10SM CLR 01/01 A3027 RMK AO2 =
2017-10-19 07:15 METAR KLKU 191115Z AUTO 00000KT 10SM CLR 03/02 A3027 RMK AO2 =
2017-10-19 06:55 METAR KLKU 191055Z AUTO 00000KT 10SM CLR 02/01 A3027 RMK AO2 =
2017-10-19 06:35 METAR KLKU 191035Z AUTO 00000KT 10SM CLR 02/01 A3027 RMK AO2 =
2017-10-19 06:15 METAR KLKU 191015Z AUTO 00000KT 10SM CLR 03/02 A3028 RMK AO2 =
2017-10-19 05:55 METAR KLKU 190955Z AUTO 00000KT 10SM CLR 04/03 A3027 RMK AO2 =
2017-10-19 05:35 METAR KLKU 190935Z AUTO 00000KT 10SM CLR 04/03 A3027 RMK AO2 =
2017-10-19 05:15 METAR KLKU 190915Z AUTO 18003KT 10SM CLR 07/04 A3027 RMK AO2 =
2017-10-19 04:55 METAR KLKU 190855Z AUTO 00000KT 10SM CLR 07/04 A3027 RMK AO2 =
2017-10-19 04:35 METAR KLKU 190835Z AUTO 00000KT 10SM CLR 04/03 A3027 RMK AO2 =
2017-10-19 04:15 METAR KLKU 190815Z AUTO 00000KT 10SM CLR 04/03 A3027 RMK AO2 =
2017-10-19 03:55 METAR KLKU 190755Z AUTO 00000KT 10SM CLR 04/03 A3027 RMK AO2 =
2017-10-19 03:35 METAR KLKU 190735Z AUTO 00000KT 10SM CLR 04/03 A3028 RMK AO2 =
2017-10-19 03:15 METAR KLKU 190715Z AUTO 00000KT 10SM CLR 05/03 A3028 RMK AO2 =
2017-10-19 02:55 METAR KLKU 190655Z AUTO 17003KT 10SM CLR 07/04 A3029 RMK AO2 =
2017-10-19 02:35 METAR KLKU 190635Z AUTO 17003KT 10SM CLR 06/04 A3029 RMK AO2 =
2017-10-19 02:15 METAR KLKU 190615Z AUTO 00000KT 10SM CLR 03/02 A3030 RMK AO2 =
2017-10-19 01:55 METAR KLKU 190555Z AUTO 00000KT 10SM CLR 03/03 A3030 RMK AO2 =
2017-10-19 01:35 METAR KLKU 190535Z AUTO 00000KT 10SM CLR 03/03 A3030 RMK AO2 =
2017-10-19 01:15 METAR KLKU 190515Z AUTO 00000KT 10SM CLR 04/03 A3031 RMK AO2 =
2017-10-19 00:55 METAR KLKU 190455Z AUTO 00000KT 10SM CLR 04/03 A3031 RMK AO2 =
2017-10-19 00:35 METAR KLKU 190435Z AUTO 00000KT 10SM CLR 05/03 A3031 RMK AO2 =
2017-10-19 00:15 METAR KLKU 190415Z AUTO 00000KT 10SM CLR 06/04 A3031 RMK AO2 =
2017-10-18 23:55 METAR KLKU 190355Z AUTO 17003KT 10SM CLR 08/04 A3031 RMK AO2 =
2017-10-18 23:35 METAR KLKU 190335Z AUTO 18003KT 10SM CLR 07/05 A3032 RMK AO2 =
2017-10-18 23:15 METAR KLKU 190315Z AUTO 17003KT 10SM CLR 07/06 A3032 RMK AO2 =
2017-10-18 22:55 METAR KLKU 190255Z AUTO 18003KT 10SM CLR 07/05 A3032 RMK AO2 =
2017-10-18 22:35 METAR KLKU 190235Z AUTO 00000KT 10SM CLR 07/06 A3032 RMK AO2 =
2017-10-18 22:15 METAR KLKU 190215Z AUTO 00000KT 10SM CLR 06/04 A3032 RMK AO2 =
2017-10-18 21:55 METAR KLKU 190155Z AUTO 00000KT 10SM CLR 06/04 A3032 RMK AO2 =
2017-10-18 21:35 METAR KLKU 190135Z AUTO 16003KT 10SM CLR 06/04 A3031 RMK AO2 =
2017-10-18 21:15 METAR KLKU 190115Z AUTO 17003KT 10SM CLR 06/04 A3032 RMK AO2 =
2017-10-18 20:55 METAR KLKU 190055Z AUTO 00000KT 10SM CLR 06/05 A3032 RMK AO2 =
2017-10-18 20:35 METAR KLKU 190035Z AUTO 00000KT 10SM CLR 07/05 A3032 RMK AO2 =
2017-10-18 20:15 METAR KLKU 190015Z AUTO 00000KT 10SM CLR 07/06 A3032 RMK AO2 =
2017-10-18 19:55 METAR KLKU 182355Z AUTO 16003KT 10SM CLR 08/06 A3032 RMK AO2 =
2017-10-18 19:35 METAR KLKU 182335Z AUTO 17003KT 10SM CLR 08/06 A3032 RMK AO2 =
2017-10-18 19:15 METAR KLKU 182315Z AUTO 16003KT 10SM CLR 09/07 A3031 RMK AO2 =
2017-10-18 18:55 METAR KLKU 182255Z AUTO 00000KT 10SM CLR 09/07 A3031 RMK AO2 =
2017-10-18 18:35 METAR KLKU 182235Z AUTO 00000KT 10SM CLR 11/08 A3031 RMK AO2 =
2017-10-18 18:15 METAR KLKU 182215Z AUTO 00000KT 10SM CLR 13/08 A3031 RMK AO2 =
2017-10-18 17:55 METAR KLKU 182155Z AUTO 00000KT 10SM CLR 15/08 A3031 RMK AO2 =
2017-10-18 17:35 METAR KLKU 182135Z AUTO 00000KT 10SM CLR 18/07 A3031 RMK AO2 =
2017-10-18 17:15 METAR KLKU 182115Z AUTO 17003KT 10SM CLR 19/04 A3031 RMK AO2 =
2017-10-18 16:55 METAR KLKU 182055Z AUTO 00000KT 10SM CLR 19/04 A3031 RMK AO2 =
2017-10-18 16:35 METAR KLKU 182035Z AUTO 00000KT 10SM CLR 19/04 A3032 RMK AO2 =
2017-10-18 16:15 METAR KLKU 182015Z AUTO 00000KT 10SM CLR 20/04 A3032 RMK AO2 =
2017-10-18 15:55 METAR KLKU 181955Z AUTO 00000KT 10SM CLR 20/03 A3032 RMK AO2 =
2017-10-18 15:35 METAR KLKU 181935Z AUTO 20004KT 10SM CLR 20/04 A3033 RMK AO2 =
2017-10-18 15:15 METAR KLKU 181915Z AUTO 12004KT 10SM CLR 20/03 A3033 RMK AO2 =
2017-10-18 14:55 METAR KLKU 181855Z AUTO 23004KT 10SM CLR 20/04 A3034 RMK AO2 =
2017-10-18 14:35 METAR KLKU 181835Z AUTO 24003KT 10SM CLR 19/04 A3034 RMK AO2 =

Support USWX by starting your Amazon purchase here.